Terminal Aerodrome Forecast
Issued by NWS

Home | Current Version | Previous Version | Graphics & Text | Print | Product List | Glossary On
Versions: 1 2 3 4 5 6 7 8 9 10 11 12 13 14 15 16 17 18 19 20
000
FTUS43 KBIS 181140
TAFDIK
TAF
KDIK 181140Z 1812/1912 09004KT P6SM VCSH SCT070 BKN120
     FM181400 09008KT P6SM SCT045 OVC100
     FM181700 11008KT P6SM FEW060 SCT120
     FM190500 14008KT P6SM FEW090 FEW200=

USA.gov is the U.S. government's official web portal to all federal, state and local government web resources and services.